SAZM/MDD METAR and TAF weather

Enter ICAO airport designator
Station Type Date Time Source
SAZM METAR 2019/06/27 10:00 UTC NOAA

SAZM 271000Z 33014KT CAVOK 05/02 Q1009


Station Type Date Time Source
SAZM Decoded METAR 2019/06/27 10:00 UTC NOAA

Mar Del Plata Aerodrome, Argentina (SAZM) 37-56S 057-35W 21M
Jun 27, 2019 - 06:00 AM EDT / 2019.06.27 1000 UTC
Wind: from the NNW (330 degrees) at 16 MPH (14 KT):0
Visibility: greater than 7 mile(s):0
Temperature: 41 F (5 C)
Dew Point: 35 F (2 C)
Relative Humidity: 80%
Pressure (altimeter): 29.80 in. Hg (1009 hPa)
ob: SAZM 271000Z 33014KT CAVOK 05/02 Q1009
cycle: 10

Station Type Date Time Source
SAZM TAF 2019/06/27 06:21 UTC NOAA

TAF SAZM 270500Z 2706/2806 32015KT CAVOK TX12/2718Z TN01/2710Z
TEMPO 2712/2718 34020G30KT
BECMG 2723/2801 34010KT

Example: see airport list